sensor_id;sensor_type;location;lat;lon;timestamp;temperature;humidity
37408;DHT22;24866;50.248;8.252;2022-11-12T00:00:36;2.70;99.90
37408;DHT22;24866;50.248;8.252;2022-11-12T00:03:07;2.70;99.90
37408;DHT22;24866;50.248;8.252;2022-11-12T00:05:37;2.70;99.90
37408;DHT22;24866;50.248;8.252;2022-11-12T00:08:07;2.80;99.90
37408;DHT22;24866;50.248;8.252;2022-11-12T00:10:37;3.00;99.90
37408;DHT22;24866;50.248;8.252;2022-11-12T00:13:07;3.20;99.90
37408;DHT22;24866;50.248;8.252;2022-11-12T00:15:39;3.20;99.90
37408;DHT22;24866;50.248;8.252;2022-11-12T00:18:11;3.20;99.90
37408;DHT22;24866;50.248;8.252;2022-11-12T00:20:41;3.40;99.90
37408;DHT22;24866;50.248;8.252;2022-11-12T00:23:11;3.40;99.90
37408;DHT22;24866;50.248;8.252;2022-11-12T00:25:41;3.40;99.90
37408;DHT22;24866;50.248;8.252;2022-11-12T00:28:11;3.40;99.90
37408;DHT22;24866;50.248;8.252;2022-11-12T00:30:42;3.40;99.90
37408;DHT22;24866;50.248;8.252;2022-11-12T00:33:12;3.30;99.90
37408;DHT22;24866;50.248;8.252;2022-11-12T00:35:42;3.20;99.90
37408;DHT22;24866;50.248;8.252;2022-11-12T00:38:12;3.10;99.90
37408;DHT22;24866;50.248;8.252;2022-11-12T00:40:42;3.30;99.90
37408;DHT22;24866;50.248;8.252;2022-11-12T00:43:12;3.30;99.90
37408;DHT22;24866;50.248;8.252;2022-11-12T00:45:43;3.10;99.90
37408;DHT22;24866;50.248;8.252;2022-11-12T00:48:13;3.10;99.90
37408;DHT22;24866;50.248;8.252;2022-11-12T00:50:43;3.20;99.90
37408;DHT22;24866;50.248;8.252;2022-11-12T00:53:13;3.40;99.90
37408;DHT22;24866;50.248;8.252;2022-11-12T00:55:42;3.50;99.90
37408;DHT22;24866;50.248;8.252;2022-11-12T00:58:12;3.60;99.90
37408;DHT22;24866;50.248;8.252;2022-11-12T01:00:44;3.60;99.90
37408;DHT22;24866;50.248;8.252;2022-11-12T01:03:14;3.40;99.90
37408;DHT22;24866;50.248;8.252;2022-11-12T01:05:43;3.30;99.90
37408;DHT22;24866;50.248;8.252;2022-11-12T01:08:13;3.40;99.90
37408;DHT22;24866;50.248;8.252;2022-11-12T01:10:43;3.30;99.90
37408;DHT22;24866;50.248;8.252;2022-11-12T01:13:13;3.30;99.90
37408;DHT22;24866;50.248;8.252;2022-11-12T01:15:44;3.20;99.90
37408;DHT22;24866;50.248;8.252;2022-11-12T01:18:14;3.20;99.90
37408;DHT22;24866;50.248;8.252;2022-11-12T01:20:44;3.30;99.90
37408;DHT22;24866;50.248;8.252;2022-11-12T01:23:14;3.30;99.90
37408;DHT22;24866;50.248;8.252;2022-11-12T01:25:44;3.30;99.90
37408;DHT22;24866;50.248;8.252;2022-11-12T01:28:14;3.30;99.90
37408;DHT22;24866;50.248;8.252;2022-11-12T01:30:45;3.20;99.90
37408;DHT22;24866;50.248;8.252;2022-11-12T01:33:15;3.20;99.90
37408;DHT22;24866;50.248;8.252;2022-11-12T01:35:45;3.20;99.90
37408;DHT22;24866;50.248;8.252;2022-11-12T01:38:15;3.00;99.90
37408;DHT22;24866;50.248;8.252;2022-11-12T01:40:45;3.00;99.90
37408;DHT22;24866;50.248;8.252;2022-11-12T01:43:15;2.90;99.90
37408;DHT22;24866;50.248;8.252;2022-11-12T01:45:48;2.90;99.90
37408;DHT22;24866;50.248;8.252;2022-11-12T01:48:24;2.80;99.90
37408;DHT22;24866;50.248;8.252;2022-11-12T01:50:55;2.80;99.90
37408;DHT22;24866;50.248;8.252;2022-11-12T01:53:27;2.40;99.90
37408;DHT22;24866;50.248;8.252;2022-11-12T01:55:59;2.00;99.90
37408;DHT22;24866;50.248;8.252;2022-11-12T01:58:30;1.90;99.90
37408;DHT22;24866;50.248;8.252;2022-11-12T02:01:02;2.10;99.90
37408;DHT22;24866;50.248;8.252;2022-11-12T02:03:32;2.20;99.90
37408;DHT22;24866;50.248;8.252;2022-11-12T02:06:05;2.10;99.90
37408;DHT22;24866;50.248;8.252;2022-11-12T02:08:37;1.60;99.90
37408;DHT22;24866;50.248;8.252;2022-11-12T02:11:12;1.60;99.90
37408;DHT22;24866;50.248;8.252;2022-11-12T02:13:43;1.90;99.90
37408;DHT22;24866;50.248;8.252;2022-11-12T02:16:35;1.90;99.90
37408;DHT22;24866;50.248;8.252;2022-11-12T02:19:08;2.00;99.90
37408;DHT22;24866;50.248;8.252;2022-11-12T02:21:40;2.10;99.90
37408;DHT22;24866;50.248;8.252;2022-11-12T02:24:30;2.40;99.90
37408;DHT22;24866;50.248;8.252;2022-11-12T02:27:00;2.40;99.90
37408;DHT22;24866;50.248;8.252;2022-11-12T02:29:32;2.40;99.90
37408;DHT22;24866;50.248;8.252;2022-11-12T02:32:02;2.40;99.90
37408;DHT22;24866;50.248;8.252;2022-11-12T02:34:31;2.60;99.90
37408;DHT22;24866;50.248;8.252;2022-11-12T02:37:03;2.70;99.90
37408;DHT22;24866;50.248;8.252;2022-11-12T02:39:33;2.70;99.90
37408;DHT22;24866;50.248;8.252;2022-11-12T02:42:03;2.70;99.90
37408;DHT22;24866;50.248;8.252;2022-11-12T02:44:33;2.70;99.90
37408;DHT22;24866;50.248;8.252;2022-11-12T02:47:03;2.70;99.90
37408;DHT22;24866;50.248;8.252;2022-11-12T02:49:33;2.70;99.90
37408;DHT22;24866;50.248;8.252;2022-11-12T02:52:04;2.60;99.90
37408;DHT22;24866;50.248;8.252;2022-11-12T02:54:34;2.70;99.90
37408;DHT22;24866;50.248;8.252;2022-11-12T02:57:04;2.70;99.90
37408;DHT22;24866;50.248;8.252;2022-11-12T02:59:33;2.70;99.90
37408;DHT22;24866;50.248;8.252;2022-11-12T03:02:04;2.70;99.90
37408;DHT22;24866;50.248;8.252;2022-11-12T03:04:34;2.80;99.90
37408;DHT22;24866;50.248;8.252;2022-11-12T03:07:05;2.50;99.90
37408;DHT22;24866;50.248;8.252;2022-11-12T03:09:35;2.10;99.90
37408;DHT22;24866;50.248;8.252;2022-11-12T03:12:05;2.00;99.90
37408;DHT22;24866;50.248;8.252;2022-11-12T03:14:35;1.80;99.90
37408;DHT22;24866;50.248;8.252;2022-11-12T03:17:05;2.10;99.90
37408;DHT22;24866;50.248;8.252;2022-11-12T03:19:35;2.10;99.90
37408;DHT22;24866;50.248;8.252;2022-11-12T03:22:06;2.20;99.90
37408;DHT22;24866;50.248;8.252;2022-11-12T03:24:36;2.30;99.90
37408;DHT22;24866;50.248;8.252;2022-11-12T03:27:06;2.50;99.90
37408;DHT22;24866;50.248;8.252;2022-11-12T03:29:36;1.90;99.90
37408;DHT22;24866;50.248;8.252;2022-11-12T03:32:06;2.20;99.90
37408;DHT22;24866;50.248;8.252;2022-11-12T03:34:36;1.90;99.90
37408;DHT22;24866;50.248;8.252;2022-11-12T03:37:07;1.70;99.90
37408;DHT22;24866;50.248;8.252;2022-11-12T03:39:37;1.80;99.90
37408;DHT22;24866;50.248;8.252;2022-11-12T03:42:07;2.00;99.90
37408;DHT22;24866;50.248;8.252;2022-11-12T03:44:37;2.00;99.90
37408;DHT22;24866;50.248;8.252;2022-11-12T03:47:07;2.00;99.90
37408;DHT22;24866;50.248;8.252;2022-11-12T03:49:37;2.00;99.90
37408;DHT22;24866;50.248;8.252;2022-11-12T03:52:08;2.00;99.90
37408;DHT22;24866;50.248;8.252;2022-11-12T03:54:38;1.90;99.90
37408;DHT22;24866;50.248;8.252;2022-11-12T03:57:08;2.00;99.90
37408;DHT22;24866;50.248;8.252;2022-11-12T03:59:38;2.00;99.90
37408;DHT22;24866;50.248;8.252;2022-11-12T04:02:08;2.20;99.90
37408;DHT22;24866;50.248;8.252;2022-11-12T04:04:41;2.30;99.90
37408;DHT22;24866;50.248;8.252;2022-11-12T04:07:35;2.10;99.90
37408;DHT22;24866;50.248;8.252;2022-11-12T04:10:23;2.00;99.90
37408;DHT22;24866;50.248;8.252;2022-11-12T04:12:53;1.60;99.90
37408;DHT22;24866;50.248;8.252;2022-11-12T04:15:40;1.70;99.90
37408;DHT22;24866;50.248;8.252;2022-11-12T04:18:10;1.70;99.90
37408;DHT22;24866;50.248;8.252;2022-11-12T04:20:57;1.70;99.90
37408;DHT22;24866;50.248;8.252;2022-11-12T04:23:46;1.70;99.90
37408;DHT22;24866;50.248;8.252;2022-11-12T04:26:16;1.90;99.90
37408;DHT22;24866;50.248;8.252;2022-11-12T04:28:53;1.90;99.90
37408;DHT22;24866;50.248;8.252;2022-11-12T04:31:40;2.00;99.90
37408;DHT22;24866;50.248;8.252;2022-11-12T04:34:10;2.20;99.90
37408;DHT22;24866;50.248;8.252;2022-11-12T04:36:58;2.10;99.90
37408;DHT22;24866;50.248;8.252;2022-11-12T04:39:29;1.90;99.90
37408;DHT22;24866;50.248;8.252;2022-11-12T04:42:00;2.00;99.90
37408;DHT22;24866;50.248;8.252;2022-11-12T04:44:47;2.00;99.90
37408;DHT22;24866;50.248;8.252;2022-11-12T04:47:34;2.00;99.90
37408;DHT22;24866;50.248;8.252;2022-11-12T04:50:07;2.00;99.90
37408;DHT22;24866;50.248;8.252;2022-11-12T04:52:41;2.10;99.90
37408;DHT22;24866;50.248;8.252;2022-11-12T04:55:12;2.00;99.90
37408;DHT22;24866;50.248;8.252;2022-11-12T04:57:42;1.80;99.90
37408;DHT22;24866;50.248;8.252;2022-11-12T05:00:12;1.90;99.90
37408;DHT22;24866;50.248;8.252;2022-11-12T05:02:42;1.90;99.90
37408;DHT22;24866;50.248;8.252;2022-11-12T05:05:12;2.00;99.90
37408;DHT22;24866;50.248;8.252;2022-11-12T05:07:42;2.00;99.90
37408;DHT22;24866;50.248;8.252;2022-11-12T05:10:14;2.10;99.90
37408;DHT22;24866;50.248;8.252;2022-11-12T05:12:44;2.20;99.90
37408;DHT22;24866;50.248;8.252;2022-11-12T05:15:14;2.30;99.90
37408;DHT22;24866;50.248;8.252;2022-11-12T05:17:44;2.40;99.90
37408;DHT22;24866;50.248;8.252;2022-11-12T05:20:14;2.60;99.90
37408;DHT22;24866;50.248;8.252;2022-11-12T05:22:44;2.60;99.90
37408;DHT22;24866;50.248;8.252;2022-11-12T05:25:16;2.50;99.90
37408;DHT22;24866;50.248;8.252;2022-11-12T05:27:45;2.40;99.90
37408;DHT22;24866;50.248;8.252;2022-11-12T05:30:15;2.40;99.90
37408;DHT22;24866;50.248;8.252;2022-11-12T05:32:45;2.40;99.90
37408;DHT22;24866;50.248;8.252;2022-11-12T05:35:15;2.30;99.90
37408;DHT22;24866;50.248;8.252;2022-11-12T05:37:45;2.40;99.90
37408;DHT22;24866;50.248;8.252;2022-11-12T05:40:16;2.10;99.90
37408;DHT22;24866;50.248;8.252;2022-11-12T05:42:46;1.80;99.90
37408;DHT22;24866;50.248;8.252;2022-11-12T05:45:16;2.00;99.90
37408;DHT22;24866;50.248;8.252;2022-11-12T05:47:47;2.10;99.90
37408;DHT22;24866;50.248;8.252;2022-11-12T05:50:16;2.00;99.90
37408;DHT22;24866;50.248;8.252;2022-11-12T05:52:46;2.00;99.90
37408;DHT22;24866;50.248;8.252;2022-11-12T05:55:17;2.10;99.90
37408;DHT22;24866;50.248;8.252;2022-11-12T05:57:47;2.20;99.90
37408;DHT22;24866;50.248;8.252;2022-11-12T06:00:18;2.20;99.90
37408;DHT22;24866;50.248;8.252;2022-11-12T06:02:47;2.30;99.90
37408;DHT22;24866;50.248;8.252;2022-11-12T06:05:17;2.30;99.90
37408;DHT22;24866;50.248;8.252;2022-11-12T06:07:47;2.10;99.90
37408;DHT22;24866;50.248;8.252;2022-11-12T06:10:18;1.90;99.90
37408;DHT22;24866;50.248;8.252;2022-11-12T06:12:48;1.60;99.90
37408;DHT22;24866;50.248;8.252;2022-11-12T06:15:19;1.50;99.90
37408;DHT22;24866;50.248;8.252;2022-11-12T06:17:49;1.60;99.90
37408;DHT22;24866;50.248;8.252;2022-11-12T06:20:19;1.80;99.90
37408;DHT22;24866;50.248;8.252;2022-11-12T06:22:50;1.80;99.90
37408;DHT22;24866;50.248;8.252;2022-11-12T06:25:21;2.00;99.90
37408;DHT22;24866;50.248;8.252;2022-11-12T06:27:52;2.00;99.90
37408;DHT22;24866;50.248;8.252;2022-11-12T06:30:22;1.80;99.90
37408;DHT22;24866;50.248;8.252;2022-11-12T06:32:52;1.90;99.90
37408;DHT22;24866;50.248;8.252;2022-11-12T06:35:22;2.00;99.90
37408;DHT22;24866;50.248;8.252;2022-11-12T06:37:52;1.90;99.90
37408;DHT22;24866;50.248;8.252;2022-11-12T06:40:24;1.90;99.90
37408;DHT22;24866;50.248;8.252;2022-11-12T06:42:57;2.00;99.90
37408;DHT22;24866;50.248;8.252;2022-11-12T06:45:27;2.20;99.90
37408;DHT22;24866;50.248;8.252;2022-11-12T06:47:57;2.20;99.90
37408;DHT22;24866;50.248;8.252;2022-11-12T06:50:27;2.30;99.90
37408;DHT22;24866;50.248;8.252;2022-11-12T06:52:58;2.30;99.90
37408;DHT22;24866;50.248;8.252;2022-11-12T06:55:29;2.20;99.90
37408;DHT22;24866;50.248;8.252;2022-11-12T06:57:59;2.00;99.90
37408;DHT22;24866;50.248;8.252;2022-11-12T07:00:28;1.80;99.90
37408;DHT22;24866;50.248;8.252;2022-11-12T07:02:58;1.80;99.90
37408;DHT22;24866;50.248;8.252;2022-11-12T07:05:28;1.90;99.90
37408;DHT22;24866;50.248;8.252;2022-11-12T07:07:58;1.70;99.90
37408;DHT22;24866;50.248;8.252;2022-11-12T07:10:30;1.60;99.90
37408;DHT22;24866;50.248;8.252;2022-11-12T07:13:00;1.80;99.90
37408;DHT22;24866;50.248;8.252;2022-11-12T07:15:30;2.00;99.90
37408;DHT22;24866;50.248;8.252;2022-11-12T07:18:00;2.10;99.90
37408;DHT22;24866;50.248;8.252;2022-11-12T07:20:29;2.00;99.90
37408;DHT22;24866;50.248;8.252;2022-11-12T07:23:00;1.80;99.90
37408;DHT22;24866;50.248;8.252;2022-11-12T07:25:31;1.60;99.90
37408;DHT22;24866;50.248;8.252;2022-11-12T07:28:01;1.70;99.90
37408;DHT22;24866;50.248;8.252;2022-11-12T07:30:31;1.70;99.90
37408;DHT22;24866;50.248;8.252;2022-11-12T07:33:01;1.60;99.90
37408;DHT22;24866;50.248;8.252;2022-11-12T07:35:31;1.70;99.90
37408;DHT22;24866;50.248;8.252;2022-11-12T07:38:01;1.80;99.90
37408;DHT22;24866;50.248;8.252;2022-11-12T07:40:32;1.70;99.90
37408;DHT22;24866;50.248;8.252;2022-11-12T07:43:03;1.60;99.90
37408;DHT22;24866;50.248;8.252;2022-11-12T07:45:33;1.60;99.90
37408;DHT22;24866;50.248;8.252;2022-11-12T07:48:04;1.70;99.90
37408;DHT22;24866;50.248;8.252;2022-11-12T07:50:34;1.80;99.90
37408;DHT22;24866;50.248;8.252;2022-11-12T07:53:04;1.90;99.90
37408;DHT22;24866;50.248;8.252;2022-11-12T07:55:36;2.10;99.90
37408;DHT22;24866;50.248;8.252;2022-11-12T07:58:06;1.90;99.90
37408;DHT22;24866;50.248;8.252;2022-11-12T08:00:36;2.00;99.90
37408;DHT22;24866;50.248;8.252;2022-11-12T08:03:06;1.90;99.90
37408;DHT22;24866;50.248;8.252;2022-11-12T08:05:36;1.60;99.90
37408;DHT22;24866;50.248;8.252;2022-11-12T08:08:06;1.70;99.90
37408;DHT22;24866;50.248;8.252;2022-11-12T08:10:37;1.80;99.90
37408;DHT22;24866;50.248;8.252;2022-11-12T08:13:07;1.90;99.90
37408;DHT22;24866;50.248;8.252;2022-11-12T08:15:37;1.80;99.90
37408;DHT22;24866;50.248;8.252;2022-11-12T08:18:07;1.80;99.90
37408;DHT22;24866;50.248;8.252;2022-11-12T08:20:37;1.80;99.90
37408;DHT22;24866;50.248;8.252;2022-11-12T08:23:07;1.70;99.90
37408;DHT22;24866;50.248;8.252;2022-11-12T08:25:38;1.80;99.90
37408;DHT22;24866;50.248;8.252;2022-11-12T08:28:09;1.70;99.90
37408;DHT22;24866;50.248;8.252;2022-11-12T08:30:39;1.90;99.90
37408;DHT22;24866;50.248;8.252;2022-11-12T08:33:09;2.00;99.90
37408;DHT22;24866;50.248;8.252;2022-11-12T08:35:39;2.00;99.90
37408;DHT22;24866;50.248;8.252;2022-11-12T08:38:09;2.00;99.90
37408;DHT22;24866;50.248;8.252;2022-11-12T08:40:42;1.80;99.90
37408;DHT22;24866;50.248;8.252;2022-11-12T08:43:12;2.10;99.90
37408;DHT22;24866;50.248;8.252;2022-11-12T08:45:42;2.30;99.90
37408;DHT22;24866;50.248;8.252;2022-11-12T08:48:14;2.60;99.90
37408;DHT22;24866;50.248;8.252;2022-11-12T08:50:44;2.70;99.90
37408;DHT22;24866;50.248;8.252;2022-11-12T08:53:14;2.80;99.90
37408;DHT22;24866;50.248;8.252;2022-11-12T08:55:45;2.90;99.90
37408;DHT22;24866;50.248;8.252;2022-11-12T08:58:15;2.90;99.90
37408;DHT22;24866;50.248;8.252;2022-11-12T09:00:45;2.90;99.90
37408;DHT22;24866;50.248;8.252;2022-11-12T09:03:17;2.90;99.90
37408;DHT22;24866;50.248;8.252;2022-11-12T09:05:47;3.00;99.90
37408;DHT22;24866;50.248;8.252;2022-11-12T09:08:20;3.10;99.90
37408;DHT22;24866;50.248;8.252;2022-11-12T09:10:52;3.10;99.90
37408;DHT22;24866;50.248;8.252;2022-11-12T09:13:22;3.00;99.90
37408;DHT22;24866;50.248;8.252;2022-11-12T09:15:52;3.20;99.90
37408;DHT22;24866;50.248;8.252;2022-11-12T09:18:22;3.40;99.90
37408;DHT22;24866;50.248;8.252;2022-11-12T09:20:52;3.50;99.90
37408;DHT22;24866;50.248;8.252;2022-11-12T09:23:22;3.40;99.90
37408;DHT22;24866;50.248;8.252;2022-11-12T09:25:55;3.50;99.90
37408;DHT22;24866;50.248;8.252;2022-11-12T09:28:25;3.70;99.90
37408;DHT22;24866;50.248;8.252;2022-11-12T09:30:55;3.70;99.90
37408;DHT22;24866;50.248;8.252;2022-11-12T09:33:30;3.90;99.90
37408;DHT22;24866;50.248;8.252;2022-11-12T09:36:01;4.10;99.90
37408;DHT22;24866;50.248;8.252;2022-11-12T09:38:31;3.80;99.90
37408;DHT22;24866;50.248;8.252;2022-11-12T09:41:18;4.10;99.90
37408;DHT22;24866;50.248;8.252;2022-11-12T09:43:50;4.20;99.90
37408;DHT22;24866;50.248;8.252;2022-11-12T09:46:32;4.40;99.90
37408;DHT22;24866;50.248;8.252;2022-11-12T09:49:09;4.50;99.90
37408;DHT22;24866;50.248;8.252;2022-11-12T09:51:44;4.60;99.90
37408;DHT22;24866;50.248;8.252;2022-11-12T09:54:21;4.70;99.90
37408;DHT22;24866;50.248;8.252;2022-11-12T09:56:54;4.70;99.90
37408;DHT22;24866;50.248;8.252;2022-11-12T09:59:27;4.50;99.90
37408;DHT22;24866;50.248;8.252;2022-11-12T10:02:04;4.40;99.90
37408;DHT22;24866;50.248;8.252;2022-11-12T10:05:09;4.50;99.90
37408;DHT22;24866;50.248;8.252;2022-11-12T10:07:54;4.40;99.90
37408;DHT22;24866;50.248;8.252;2022-11-12T10:10:34;4.50;99.90
37408;DHT22;24866;50.248;8.252;2022-11-12T10:13:21;4.60;99.90
37408;DHT22;24866;50.248;8.252;2022-11-12T10:16:01;4.60;99.90
37408;DHT22;24866;50.248;8.252;2022-11-12T10:19:07;4.60;99.90
37408;DHT22;24866;50.248;8.252;2022-11-12T10:21:46;4.70;99.90
37408;DHT22;24866;50.248;8.252;2022-11-12T10:24:20;4.80;99.90
37408;DHT22;24866;50.248;8.252;2022-11-12T10:26:52;5.00;99.90
37408;DHT22;24866;50.248;8.252;2022-11-12T10:29:30;5.10;99.90
37408;DHT22;24866;50.248;8.252;2022-11-12T10:32:01;4.90;99.90
37408;DHT22;24866;50.248;8.252;2022-11-12T10:34:31;5.00;99.90
37408;DHT22;24866;50.248;8.252;2022-11-12T10:37:05;4.80;99.90
37408;DHT22;24866;50.248;8.252;2022-11-12T10:39:37;4.70;99.90
37408;DHT22;24866;50.248;8.252;2022-11-12T10:42:09;5.00;99.90
37408;DHT22;24866;50.248;8.252;2022-11-12T10:44:41;5.20;99.90
37408;DHT22;24866;50.248;8.252;2022-11-12T10:47:26;4.90;99.90
37408;DHT22;24866;50.248;8.252;2022-11-12T10:50:10;5.00;99.90
37408;DHT22;24866;50.248;8.252;2022-11-12T10:52:57;4.80;99.90
37408;DHT22;24866;50.248;8.252;2022-11-12T10:55:28;4.90;99.90
37408;DHT22;24866;50.248;8.252;2022-11-12T10:58:16;5.10;99.90
37408;DHT22;24866;50.248;8.252;2022-11-12T11:01:11;4.90;99.90
37408;DHT22;24866;50.248;8.252;2022-11-12T11:03:46;5.10;99.90
37408;DHT22;24866;50.248;8.252;2022-11-12T11:06:21;5.10;99.90
37408;DHT22;24866;50.248;8.252;2022-11-12T11:09:06;5.30;99.90
37408;DHT22;24866;50.248;8.252;2022-11-12T11:11:37;5.40;99.90
37408;DHT22;24866;50.248;8.252;2022-11-12T11:14:26;5.50;99.90
37408;DHT22;24866;50.248;8.252;2022-11-12T11:17:00;5.80;99.90
37408;DHT22;24866;50.248;8.252;2022-11-12T11:19:35;5.70;99.90
37408;DHT22;24866;50.248;8.252;2022-11-12T11:22:22;5.50;99.90
37408;DHT22;24866;50.248;8.252;2022-11-12T11:25:06;5.60;99.90
37408;DHT22;24866;50.248;8.252;2022-11-12T11:27:43;6.00;99.90
37408;DHT22;24866;50.248;8.252;2022-11-12T11:30:18;6.30;99.90
37408;DHT22;24866;50.248;8.252;2022-11-12T11:33:21;6.10;99.90
37408;DHT22;24866;50.248;8.252;2022-11-12T11:35:58;6.40;99.90
37408;DHT22;24866;50.248;8.252;2022-11-12T11:38:43;6.30;99.90
37408;DHT22;24866;50.248;8.252;2022-11-12T11:41:28;6.40;99.90
37408;DHT22;24866;50.248;8.252;2022-11-12T11:44:09;6.60;99.90
37408;DHT22;24866;50.248;8.252;2022-11-12T11:46:55;6.50;99.90
37408;DHT22;24866;50.248;8.252;2022-11-12T11:49:53;6.40;99.90
37408;DHT22;24866;50.248;8.252;2022-11-12T11:52:44;6.50;99.90
37408;DHT22;24866;50.248;8.252;2022-11-12T11:55:22;6.90;99.90
37408;DHT22;24866;50.248;8.252;2022-11-12T11:58:09;6.70;99.90
37408;DHT22;24866;50.248;8.252;2022-11-12T12:00:46;6.70;99.90
37408;DHT22;24866;50.248;8.252;2022-11-12T12:03:21;6.80;99.90
37408;DHT22;24866;50.248;8.252;2022-11-12T12:06:06;6.90;99.90
37408;DHT22;24866;50.248;8.252;2022-11-12T12:08:49;6.90;99.90
37408;DHT22;24866;50.248;8.252;2022-11-12T12:11:25;7.10;99.90
37408;DHT22;24866;50.248;8.252;2022-11-12T12:14:15;6.90;99.90
37408;DHT22;24866;50.248;8.252;2022-11-12T12:16:52;6.80;99.90
37408;DHT22;24866;50.248;8.252;2022-11-12T12:19:44;6.80;99.90
37408;DHT22;24866;50.248;8.252;2022-11-12T12:22:24;7.10;99.90
37408;DHT22;24866;50.248;8.252;2022-11-12T12:25:02;7.30;99.90
37408;DHT22;24866;50.248;8.252;2022-11-12T12:27:43;7.40;99.90
37408;DHT22;24866;50.248;8.252;2022-11-12T12:30:19;7.00;99.90
37408;DHT22;24866;50.248;8.252;2022-11-12T12:32:56;7.20;99.90
37408;DHT22;24866;50.248;8.252;2022-11-12T12:35:31;7.30;99.90
37408;DHT22;24866;50.248;8.252;2022-11-12T12:38:22;7.60;99.90
37408;DHT22;24866;50.248;8.252;2022-11-12T12:41:01;7.80;99.90
37408;DHT22;24866;50.248;8.252;2022-11-12T12:43:37;7.70;99.90
37408;DHT22;24866;50.248;8.252;2022-11-12T12:46:10;7.70;99.90
37408;DHT22;24866;50.248;8.252;2022-11-12T12:48:44;7.60;99.90
37408;DHT22;24866;50.248;8.252;2022-11-12T12:51:16;7.80;99.90
37408;DHT22;24866;50.248;8.252;2022-11-12T12:53:48;8.00;99.90
37408;DHT22;24866;50.248;8.252;2022-11-12T12:56:42;8.10;99.90
37408;DHT22;24866;50.248;8.252;2022-11-12T12:59:21;8.00;99.90
37408;DHT22;24866;50.248;8.252;2022-11-12T13:01:58;8.00;99.90
37408;DHT22;24866;50.248;8.252;2022-11-12T13:04:59;8.10;99.90
37408;DHT22;24866;50.248;8.252;2022-11-12T13:07:39;8.20;99.90
37408;DHT22;24866;50.248;8.252;2022-11-12T13:10:48;8.30;99.90
37408;DHT22;24866;50.248;8.252;2022-11-12T13:13:32;8.20;99.90
37408;DHT22;24866;50.248;8.252;2022-11-12T13:16:03;8.40;99.90
37408;DHT22;24866;50.248;8.252;2022-11-12T13:18:58;8.50;99.90
37408;DHT22;24866;50.248;8.252;2022-11-12T13:21:29;7.90;99.90
37408;DHT22;24866;50.248;8.252;2022-11-12T13:24:00;7.70;99.90
37408;DHT22;24866;50.248;8.252;2022-11-12T13:26:50;7.90;99.90
37408;DHT22;24866;50.248;8.252;2022-11-12T13:29:22;8.10;99.90
37408;DHT22;24866;50.248;8.252;2022-11-12T13:32:25;8.20;99.90
37408;DHT22;24866;50.248;8.252;2022-11-12T13:35:17;8.10;99.90
37408;DHT22;24866;50.248;8.252;2022-11-12T13:37:50;8.00;99.90
37408;DHT22;24866;50.248;8.252;2022-11-12T13:40:36;8.20;99.90
37408;DHT22;24866;50.248;8.252;2022-11-12T13:43:17;8.20;99.90
37408;DHT22;24866;50.248;8.252;2022-11-12T13:45:52;8.20;99.90
37408;DHT22;24866;50.248;8.252;2022-11-12T13:48:26;8.00;99.90
37408;DHT22;24866;50.248;8.252;2022-11-12T13:51:00;8.10;99.90
37408;DHT22;24866;50.248;8.252;2022-11-12T13:53:32;8.10;99.90
37408;DHT22;24866;50.248;8.252;2022-11-12T13:56:02;8.30;99.90
37408;DHT22;24866;50.248;8.252;2022-11-12T13:58:35;8.20;99.90
37408;DHT22;24866;50.248;8.252;2022-11-12T14:01:09;7.80;99.90
37408;DHT22;24866;50.248;8.252;2022-11-12T14:03:43;7.70;99.90
37408;DHT22;24866;50.248;8.252;2022-11-12T14:06:16;7.60;99.90
37408;DHT22;24866;50.248;8.252;2022-11-12T14:08:58;7.60;99.90
37408;DHT22;24866;50.248;8.252;2022-11-12T14:11:44;7.70;99.90
37408;DHT22;24866;50.248;8.252;2022-11-12T14:14:26;7.70;99.90
37408;DHT22;24866;50.248;8.252;2022-11-12T14:17:08;7.70;99.90
37408;DHT22;24866;50.248;8.252;2022-11-12T14:20:07;7.50;99.90
37408;DHT22;24866;50.248;8.252;2022-11-12T14:22:42;7.50;99.90
37408;DHT22;24866;50.248;8.252;2022-11-12T14:25:16;7.40;99.90
37408;DHT22;24866;50.248;8.252;2022-11-12T14:27:48;7.30;99.90
37408;DHT22;24866;50.248;8.252;2022-11-12T14:30:23;7.20;99.90
37408;DHT22;24866;50.248;8.252;2022-11-12T14:32:58;7.40;99.90
37408;DHT22;24866;50.248;8.252;2022-11-12T14:35:34;7.50;99.90
37408;DHT22;24866;50.248;8.252;2022-11-12T14:38:16;7.40;99.90
37408;DHT22;24866;50.248;8.252;2022-11-12T14:40:50;7.30;99.90
37408;DHT22;24866;50.248;8.252;2022-11-12T14:43:24;7.30;99.90
37408;DHT22;24866;50.248;8.252;2022-11-12T14:45:58;7.10;99.90
37408;DHT22;24866;50.248;8.252;2022-11-12T14:48:29;7.20;99.90
37408;DHT22;24866;50.248;8.252;2022-11-12T14:51:07;7.10;99.90
37408;DHT22;24866;50.248;8.252;2022-11-12T14:53:42;7.00;99.90
37408;DHT22;24866;50.248;8.252;2022-11-12T14:56:21;7.10;99.90
37408;DHT22;24866;50.248;8.252;2022-11-12T14:58:53;7.10;99.90
37408;DHT22;24866;50.248;8.252;2022-11-12T15:01:28;7.30;99.90
37408;DHT22;24866;50.248;8.252;2022-11-12T15:04:17;6.90;99.90
37408;DHT22;24866;50.248;8.252;2022-11-12T15:06:51;7.10;99.90
37408;DHT22;24866;50.248;8.252;2022-11-12T15:09:33;7.00;99.90
37408;DHT22;24866;50.248;8.252;2022-11-12T15:12:05;7.00;99.90
37408;DHT22;24866;50.248;8.252;2022-11-12T15:14:36;6.80;99.90
37408;DHT22;24866;50.248;8.252;2022-11-12T15:17:26;6.80;99.90
37408;DHT22;24866;50.248;8.252;2022-11-12T15:20:03;6.90;99.90
37408;DHT22;24866;50.248;8.252;2022-11-12T15:22:33;6.90;99.90
37408;DHT22;24866;50.248;8.252;2022-11-12T15:25:19;7.10;99.90
37408;DHT22;24866;50.248;8.252;2022-11-12T15:27:50;7.00;99.90
37408;DHT22;24866;50.248;8.252;2022-11-12T15:30:22;7.10;99.90
37408;DHT22;24866;50.248;8.252;2022-11-12T15:33:07;7.00;99.90
37408;DHT22;24866;50.248;8.252;2022-11-12T15:35:38;6.90;99.90
37408;DHT22;24866;50.248;8.252;2022-11-12T15:38:16;7.00;99.90
37408;DHT22;24866;50.248;8.252;2022-11-12T15:40:52;7.00;99.90
37408;DHT22;24866;50.248;8.252;2022-11-12T15:43:23;7.10;99.90
37408;DHT22;24866;50.248;8.252;2022-11-12T15:45:55;7.00;99.90
37408;DHT22;24866;50.248;8.252;2022-11-12T15:48:27;6.80;99.90
37408;DHT22;24866;50.248;8.252;2022-11-12T15:50:57;6.80;99.90
37408;DHT22;24866;50.248;8.252;2022-11-12T15:53:28;6.70;99.90
37408;DHT22;24866;50.248;8.252;2022-11-12T15:55:59;6.90;99.90
37408;DHT22;24866;50.248;8.252;2022-11-12T15:58:33;7.10;99.90
37408;DHT22;24866;50.248;8.252;2022-11-12T16:01:04;7.10;99.90
37408;DHT22;24866;50.248;8.252;2022-11-12T16:03:35;7.40;99.90
37408;DHT22;24866;50.248;8.252;2022-11-12T16:06:08;7.40;99.90
37408;DHT22;24866;50.248;8.252;2022-11-12T16:08:38;7.30;99.90
37408;DHT22;24866;50.248;8.252;2022-11-12T16:11:08;7.30;99.90
37408;DHT22;24866;50.248;8.252;2022-11-12T16:13:59;7.20;99.90
37408;DHT22;24866;50.248;8.252;2022-11-12T16:16:30;7.20;99.90
37408;DHT22;24866;50.248;8.252;2022-11-12T16:19:01;7.20;99.90
37408;DHT22;24866;50.248;8.252;2022-11-12T16:21:32;7.10;99.90
37408;DHT22;24866;50.248;8.252;2022-11-12T16:24:02;6.50;99.90
37408;DHT22;24866;50.248;8.252;2022-11-12T16:26:33;6.80;99.90
37408;DHT22;24866;50.248;8.252;2022-11-12T16:29:10;6.90;99.90